createdAt,value
2018-11-28T00:02:26.534Z,1.68
2018-11-28T00:08:21.526Z,2.35
2018-11-28T00:14:16.536Z,4.5
2018-11-28T00:20:11.563Z,2.49
2018-11-28T00:26:06.600Z,2.65
2018-11-28T00:32:01.555Z,2.45
2018-11-28T00:37:56.591Z,1.79
2018-11-28T00:43:51.561Z,1.56
2018-11-28T00:49:46.558Z,1.93
2018-11-28T00:55:41.570Z,1.65
2018-11-28T01:01:36.565Z,1.88
2018-11-28T01:07:31.593Z,1.65
2018-11-28T01:13:26.583Z,1.71
2018-11-28T01:19:21.579Z,2.25
2018-11-28T01:25:16.587Z,1.82
2018-11-28T01:31:11.570Z,1.64
2018-11-28T01:37:06.585Z,5.68
2018-11-28T01:43:01.593Z,1.98
2018-11-28T01:48:56.608Z,2.13
2018-11-28T01:54:51.673Z,1.86
2018-11-28T02:00:46.628Z,1.65
2018-11-28T02:06:41.611Z,1.84
2018-11-28T02:12:36.611Z,1.97
2018-11-28T02:18:31.613Z,1.72
2018-11-28T02:24:26.611Z,1.71
2018-11-28T02:30:21.696Z,1.59
2018-11-28T02:36:16.625Z,1.98
2018-11-28T02:42:11.622Z,1.94
2018-11-28T02:48:06.678Z,2.31
2018-11-28T02:54:01.622Z,2.34
2018-11-28T02:59:56.675Z,2.2
2018-11-28T03:05:51.659Z,2.09
2018-11-28T03:11:46.687Z,1.92
2018-11-28T03:17:41.625Z,1.95
2018-11-28T03:23:36.668Z,2.34
2018-11-28T03:29:31.647Z,3.59
2018-11-28T03:35:26.651Z,1.89
2018-11-28T03:41:21.677Z,2.1
2018-11-28T03:47:16.667Z,1.71
2018-11-28T03:53:11.668Z,1.82
2018-11-28T03:59:06.664Z,1.96
2018-11-28T04:05:01.686Z,2.55
2018-11-28T04:10:56.667Z,1.86
2018-11-28T04:16:51.675Z,1.78
2018-11-28T04:22:46.662Z,1.93
2018-11-28T04:28:41.681Z,2.16
2018-11-28T04:34:36.697Z,2.51
2018-11-28T04:40:31.683Z,2.08
2018-11-28T04:46:26.702Z,4.39
2018-11-28T04:52:21.695Z,2.48
2018-11-28T04:58:16.689Z,2.6
2018-11-28T05:04:11.706Z,2.37
2018-11-28T05:10:06.704Z,3.78
2018-11-28T05:16:01.731Z,9.92
2018-11-28T05:21:56.698Z,4.25
2018-11-28T05:27:51.718Z,3.05
2018-11-28T05:33:46.716Z,2.4
2018-11-28T05:39:41.725Z,2.46
2018-11-28T05:45:36.726Z,2.42
2018-11-28T05:51:31.706Z,4.21
2018-11-28T05:57:26.711Z,2.42
2018-11-28T06:03:21.735Z,3.13
2018-11-28T06:09:16.736Z,5.51
2018-11-28T06:15:11.780Z,3.1
2018-11-28T06:21:06.751Z,3.65
2018-11-28T06:27:01.774Z,5.4
2018-11-28T06:32:56.747Z,3.72
2018-11-28T06:38:51.752Z,3.8
2018-11-28T06:44:46.756Z,4.23
2018-11-28T06:50:41.766Z,4.28
2018-11-28T06:56:36.753Z,3.44
2018-11-28T07:02:31.763Z,3
2018-11-28T07:08:26.780Z,3.21
2018-11-28T07:14:21.762Z,3
2018-11-28T07:20:16.768Z,3.83
2018-11-28T07:26:11.789Z,3.43
2018-11-28T07:32:06.761Z,3.04
2018-11-28T07:38:01.754Z,3.51
2018-11-28T07:43:56.781Z,3.3
2018-11-28T07:49:51.769Z,2.55
2018-11-28T07:55:46.787Z,3.21
2018-11-28T08:01:41.813Z,2.9
2018-11-28T08:07:36.838Z,2.92
2018-11-28T08:13:31.777Z,3.21
2018-11-28T08:19:26.790Z,3.01
2018-11-28T08:25:27.457Z,3.27
2018-11-28T08:31:16.805Z,2.89
2018-11-28T08:37:11.837Z,2.77
2018-11-28T08:43:06.812Z,3.35
2018-11-28T08:49:01.807Z,2.09
2018-11-28T08:54:56.804Z,2.25
2018-11-28T09:00:51.850Z,2.57
2018-11-28T09:06:46.850Z,3.23
2018-11-28T09:12:41.807Z,2.41
2018-11-28T09:18:36.820Z,2.49
2018-11-28T09:24:31.837Z,2.99
2018-11-28T09:30:26.850Z,2.39
2018-11-28T09:36:21.829Z,3.11
2018-11-28T09:42:16.863Z,1.8
2018-11-28T09:48:11.838Z,2.97
2018-11-28T09:54:06.834Z,2.96
2018-11-28T10:00:01.893Z,3.14
2018-11-28T10:05:56.833Z,2.6
2018-11-28T10:11:51.874Z,2.6
2018-11-28T10:17:46.930Z,2.81
2018-11-28T10:23:41.881Z,2.76
2018-11-28T10:29:36.868Z,2.72
2018-11-28T10:35:31.854Z,2.92
2018-11-28T10:41:26.879Z,2.58
2018-11-28T10:47:21.872Z,2.79
2018-11-28T10:53:16.904Z,2.62
2018-11-28T10:59:11.872Z,3.22
2018-11-28T11:05:06.889Z,2.81
2018-11-28T11:11:01.879Z,2.97
2018-11-28T11:16:56.929Z,2.78
2018-11-28T11:22:51.887Z,4.48
2018-11-28T11:28:46.905Z,3.23
2018-11-28T11:34:41.899Z,3.45
2018-11-28T11:40:36.904Z,4.09
2018-11-28T11:46:31.892Z,3.09
2018-11-28T11:52:27.543Z,2.75
2018-11-28T11:58:21.905Z,3.27
2018-11-28T12:04:16.905Z,3.26
2018-11-28T12:10:11.941Z,3.49
2018-11-28T12:16:06.965Z,4.29
2018-11-28T12:22:01.922Z,3.68
2018-11-28T12:27:56.926Z,3.35
2018-11-28T12:33:51.944Z,3.68
2018-11-28T12:39:46.965Z,3.49
2018-11-28T12:45:41.947Z,3.73
2018-11-28T12:51:36.928Z,3.41
2018-11-28T12:57:31.966Z,3.7
2018-11-28T13:03:26.979Z,4.43
2018-11-28T13:09:21.955Z,3.59
2018-11-28T13:15:16.975Z,3.74
2018-11-28T13:21:11.933Z,3.63
2018-11-28T13:27:06.967Z,3.56
2018-11-28T13:33:01.976Z,3.29
2018-11-28T13:38:56.954Z,3.95
2018-11-28T13:44:51.960Z,3.49
2018-11-28T13:50:46.971Z,3.5
2018-11-28T13:56:58.863Z,3.17
2018-11-28T14:02:36.996Z,3.44
2018-11-28T14:08:32.025Z,2.74
2018-11-28T14:14:26.968Z,3.14
2018-11-28T14:20:21.988Z,3.07
2018-11-28T14:26:16.994Z,2.87
2018-11-28T14:32:12.028Z,3.02
2018-11-28T14:38:06.989Z,3.21
2018-11-28T14:44:01.990Z,3.28
2018-11-28T14:49:57.022Z,3.52
2018-11-28T14:55:52.039Z,3.76
2018-11-28T15:01:47.058Z,4.02
2018-11-28T15:07:42.023Z,3.69
2018-11-28T15:13:37.009Z,3.31
2018-11-28T15:19:32.022Z,3.71
2018-11-28T15:25:27.012Z,3.12
2018-11-28T15:31:22.058Z,3.48
2018-11-28T15:37:17.029Z,10.53
2018-11-28T15:43:12.043Z,5.17
2018-11-28T15:49:07.039Z,4.1
2018-11-28T15:55:02.081Z,3.93
2018-11-28T16:00:57.100Z,3.6
2018-11-28T16:06:52.030Z,4.94
2018-11-28T16:12:47.041Z,6.88
2018-11-28T16:18:42.063Z,4.02
2018-11-28T16:24:37.073Z,4.91
2018-11-28T16:30:32.073Z,4.56
2018-11-28T16:36:27.066Z,4.34
2018-11-28T16:42:22.074Z,5.14
2018-11-28T16:48:17.071Z,5.61
2018-11-28T16:54:12.083Z,4.41
2018-11-28T17:00:07.066Z,6.05
2018-11-28T17:06:02.078Z,4.11
2018-11-28T17:11:57.068Z,5.26
2018-11-28T17:17:52.081Z,7.13
2018-11-28T17:23:47.101Z,5.9
2018-11-28T17:29:42.120Z,6.12
2018-11-28T17:35:37.087Z,4.84
2018-11-28T17:41:32.101Z,5.27
2018-11-28T17:47:27.108Z,4.7
2018-11-28T17:53:22.111Z,6.41
2018-11-28T17:59:17.131Z,5.47
2018-11-28T18:05:12.095Z,5.11
2018-11-28T18:11:07.155Z,5.16
2018-11-28T18:17:02.131Z,8.44
2018-11-28T18:22:57.137Z,6.03
2018-11-28T18:28:52.191Z,6.11
2018-11-28T18:34:47.176Z,4.63
2018-11-28T18:40:42.144Z,6.3
2018-11-28T18:46:37.135Z,8.43
2018-11-28T18:52:32.210Z,7.12
2018-11-28T18:58:27.193Z,8.1
2018-11-28T19:04:22.229Z,5.43
2018-11-28T19:10:17.168Z,5.76
2018-11-28T19:16:12.203Z,5.9
2018-11-28T19:22:07.187Z,5.79
2018-11-28T19:28:02.167Z,5.77
2018-11-28T19:33:57.188Z,12.4
2018-11-28T19:39:52.154Z,6.27
2018-11-28T19:45:47.180Z,4.23
2018-11-28T19:51:42.202Z,7.31
2018-11-28T19:57:37.163Z,5.17
2018-11-28T20:03:32.204Z,5.22
2018-11-28T20:09:27.189Z,11.79
2018-11-28T20:15:22.183Z,9.63
2018-11-28T20:21:17.194Z,5.45
2018-11-28T20:27:12.186Z,6.35
2018-11-28T20:33:07.231Z,4.45
2018-11-28T20:39:02.224Z,4.96
2018-11-28T20:44:57.194Z,4.17
2018-11-28T20:50:52.188Z,4.6
2018-11-28T20:56:47.235Z,4.42
2018-11-28T21:02:42.232Z,3.14
2018-11-28T21:08:37.221Z,3.25
2018-11-28T21:14:32.204Z,2.73
2018-11-28T21:20:27.246Z,2.21
2018-11-28T21:26:22.215Z,2.74
2018-11-28T21:32:17.225Z,3.71
2018-11-28T21:38:12.281Z,5.1
2018-11-28T21:44:07.268Z,4.97
2018-11-28T21:50:02.286Z,3.48
2018-11-28T21:55:57.277Z,3.22
2018-11-28T22:01:52.233Z,10
2018-11-28T22:07:47.244Z,10.27
2018-11-28T22:13:42.308Z,8.3
2018-11-28T22:19:37.248Z,3.48
2018-11-28T22:25:32.265Z,1.72
2018-11-28T22:31:27.268Z,2.41
2018-11-28T22:37:22.260Z,3.61
2018-11-28T22:43:17.298Z,3.75
2018-11-28T22:49:12.291Z,2.81
2018-11-28T22:55:07.273Z,3.91
2018-11-28T23:01:02.272Z,3.69
2018-11-28T23:06:57.279Z,2.62
2018-11-28T23:12:52.291Z,2.75
2018-11-28T23:18:47.333Z,2.37
2018-11-28T23:24:42.297Z,1.95
2018-11-28T23:30:37.277Z,4.1
2018-11-28T23:36:32.301Z,2.95
2018-11-28T23:42:27.292Z,2.56
2018-11-28T23:48:22.308Z,2.14
2018-11-28T23:54:17.298Z,2.86
